Time;durP1;ratioP1;P1;durP2;ratioP2;P2;SDS_P1;SDS_P2;PMS_P1;PMS_P2;Temp;Humidity;BMP_temperature;BMP_pressure;BME280_temperature;BME280_humidity;BME280_pressure;Samples;Min_cycle;Max_cycle;Signal;HPM_P1;HPM_P2
2023/01/14 00:01:31;;;;;;;2.10;0.40;;;;;;;12.51;100.00;100071.16;5005478;28;20061;-77
2023/01/14 00:04:00;;;;;;;4.63;0.47;;;;;;;12.53;100.00;100072.06;5002822;28;20132;-79
2023/01/14 00:06:33;;;;;;;0.85;0.43;;;;;;;12.51;100.00;100069.44;5005863;28;20057;-78
2023/01/14 00:09:02;;;;;;;0.85;0.20;;;;;;;12.56;100.00;100062.56;5002069;28;20042;-78
2023/01/14 00:11:50;;;;;;;0.52;0.30;;;;;;;12.59;100.00;100064.31;5007818;28;20058;-78
2023/01/14 00:14:21;;;;;;;1.02;0.20;;;;;;;12.56;100.00;100059.97;5009096;28;20053;-79
2023/01/14 00:16:50;;;;;;;2.72;0.32;;;;;;;12.55;100.00;100054.75;5012106;28;20141;-83
2023/01/14 00:19:19;;;;;;;0.47;0.30;;;;;;;12.53;100.00;100064.25;5009616;28;20141;-86
2023/01/14 00:21:49;;;;;;;0.40;0.20;;;;;;;12.50;100.00;100049.50;5010176;28;20140;-79
2023/01/14 00:24:20;;;;;;;0.17;0.10;;;;;;;12.54;100.00;100058.22;5007387;28;20054;-80
2023/01/14 00:26:52;;;;;;;0.20;0.17;;;;;;;12.55;100.00;100058.22;5003076;28;20038;-80
2023/01/14 00:29:22;;;;;;;1.17;0.22;;;;;;;12.57;100.00;100058.22;5007062;28;20046;-83
2023/01/14 00:31:50;;;;;;;0.45;0.20;;;;;;;12.58;100.00;100059.97;5005888;28;20050;-77
2023/01/14 00:34:19;;;;;;;0.65;0.40;;;;;;;12.57;100.00;100053.03;5004388;28;20066;-84
2023/01/14 00:36:49;;;;;;;1.65;0.63;;;;;;;12.58;100.00;100053.06;5008531;28;20049;-85
2023/01/14 00:39:18;;;;;;;0.60;0.22;;;;;;;12.60;100.00;100052.19;5007848;28;20052;-78
2023/01/14 00:41:46;;;;;;;0.57;0.38;;;;;;;12.58;100.00;100047.88;5005835;28;20046;-83
2023/01/14 00:44:16;;;;;;;0.28;0.20;;;;;;;12.59;100.00;100040.94;5004079;28;20050;-84
2023/01/14 00:46:44;;;;;;;1.02;0.38;;;;;;;12.57;100.00;100042.66;5008672;28;20133;-85
2023/01/14 00:49:18;;;;;;;0.75;0.40;;;;;;;12.54;100.00;100040.03;5008497;28;20109;-84
2023/01/14 00:51:52;;;;;;;0.95;0.60;;;;;;;12.53;100.00;100044.38;5003578;28;20054;-86
2023/01/14 00:54:20;;;;;;;0.30;0.30;;;;;;;12.51;100.00;100038.28;5009342;28;20056;-85
2023/01/14 00:56:49;;;;;;;0.50;0.38;;;;;;;12.50;100.00;100041.72;5014114;28;20057;-83
2023/01/14 00:59:19;;;;;;;1.33;0.60;;;;;;;12.49;100.00;100040.00;5013513;28;20050;-80
2023/01/14 01:01:48;;;;;;;0.40;0.30;;;;;;;12.49;100.00;100044.31;5008248;28;20061;-88
2023/01/14 01:04:17;;;;;;;0.50;0.30;;;;;;;12.47;100.00;100046.88;5008712;28;20046;-84
2023/01/14 01:06:46;;;;;;;1.25;0.50;;;;;;;12.45;100.00;100037.34;5008915;28;20667;-83
2023/01/14 01:09:16;;;;;;;0.57;0.40;;;;;;;12.44;100.00;100033.00;5006651;28;20050;-85
2023/01/14 01:11:45;;;;;;;0.88;0.30;;;;;;;12.45;100.00;100037.34;5015734;28;20046;-84
2023/01/14 01:14:13;;;;;;;0.65;0.25;;;;;;;12.44;100.00;100038.19;5013392;28;20045;-84
2023/01/14 01:16:42;;;;;;;0.40;0.20;;;;;;;12.43;100.00;100039.91;5008600;28;20091;-84
2023/01/14 01:19:10;;;;;;;0.63;0.25;;;;;;;12.44;100.00;100035.59;5008472;28;20049;-84
2023/01/14 01:21:39;;;;;;;1.67;0.65;;;;;;;12.42;100.00;100039.94;5011330;28;20081;-84
2023/01/14 01:24:08;;;;;;;1.70;0.40;;;;;;;12.38;100.00;100032.97;5012249;28;20491;-83
2023/01/14 01:26:47;;;;;;;0.30;0.20;;;;;;;12.35;100.00;100050.22;5011214;28;20046;-82
2023/01/14 01:29:16;;;;;;;0.30;0.30;;;;;;;12.34;100.00;100043.28;5011661;28;20050;-83
2023/01/14 01:31:45;;;;;;;0.70;0.30;;;;;;;12.35;100.00;100042.44;5012494;28;20255;-79
2023/01/14 01:34:13;;;;;;;2.03;0.40;;;;;;;12.34;100.00;100037.22;5012043;28;20116;-79
2023/01/14 01:36:42;;;;;;;0.80;0.45;;;;;;;12.34;100.00;100037.22;5012824;28;20075;-79
2023/01/14 01:39:10;;;;;;;2.25;0.65;;;;;;;12.31;100.00;100034.63;5008808;28;20049;-80
2023/01/14 01:41:41;;;;;;;1.58;1.02;;;;;;;12.28;100.00;100035.47;5009308;28;20563;-78
2023/01/14 01:44:30;;;;;;;1.92;1.02;;;;;;;12.28;100.00;100043.25;5008947;28;20049;-76
2023/01/14 01:47:00;;;;;;;3.33;0.90;;;;;;;12.25;100.00;100044.91;5010517;28;20495;-75
2023/01/14 01:49:32;;;;;;;1.80;1.08;;;;;;;12.21;100.00;100038.84;4995100;28;20093;-78
2023/01/14 01:52:08;;;;;;;1.88;0.73;;;;;;;12.21;100.00;100032.75;5008672;28;20422;-78
2023/01/14 01:54:41;;;;;;;7.15;0.70;;;;;;;12.17;100.00;100031.88;5009578;28;20053;-77
2023/01/14 01:57:15;;;;;;;1.48;0.70;;;;;;;12.15;100.00;100023.19;5009239;28;20046;-77
2023/01/14 01:59:47;;;;;;;1.38;0.50;;;;;;;12.11;100.00;100021.41;5008667;28;20052;-79
2023/01/14 03:34:30;;;;;;;1.55;0.17;;;;;;;11.87;100.00;99999.53;4769976;29;20083;-77
2023/01/14 03:37:03;;;;;;;1.25;0.40;;;;;;;11.88;100.00;99993.50;4794449;29;20047;-78
2023/01/14 03:39:34;;;;;;;0.35;0.20;;;;;;;11.88;100.00;99996.09;4862600;28;20053;-78
2023/01/14 03:42:22;;;;;;;0.35;0.30;;;;;;;11.87;100.00;99989.19;5006213;28;20061;-77
2023/01/14 03:45:02;;;;;;;0.47;0.30;;;;;;;11.87;100.00;99990.88;5000719;28;20096;-79
2023/01/14 03:47:33;;;;;;;1.58;0.43;;;;;;;11.85;100.00;99993.44;5003481;28;20601;-77
2023/01/14 03:50:08;;;;;;;0.30;0.20;;;;;;;11.83;100.00;99989.09;5004165;28;20081;-78
2023/01/14 03:52:51;;;;;;;0.47;0.20;;;;;;;11.80;100.00;99989.06;5004200;28;20505;-77
2023/01/14 03:55:28;;;;;;;0.65;0.35;;;;;;;11.79;100.00;99988.16;5002229;28;20042;-76
2023/01/14 03:58:02;;;;;;;0.63;0.30;;;;;;;11.79;100.00;99987.31;5004627;28;20049;-75
2023/01/14 04:00:35;;;;;;;1.33;0.50;;;;;;;11.80;100.00;99991.66;5004252;28;20127;-75
2023/01/14 04:03:09;;;;;;;;;;;;;;;11.79;100.00;99992.47;5006537;28;20077;-79
2023/01/14 04:05:40;;;;;;;0.40;0.30;;;;;;;11.77;100.00;99989.88;5002785;28;19991;-80
2023/01/14 04:08:10;;;;;;;1.35;0.30;;;;;;;11.73;100.00;99978.59;5005525;28;20052;-76
2023/01/14 04:10:40;;;;;;;0.50;0.30;;;;;;;11.74;100.00;99992.44;5005177;28;20046;-75
2023/01/14 04:15:54;;;;;;;3.50;0.65;;;;;;;11.76;100.00;99976.91;5005852;28;21086;-76
2023/01/14 04:18:23;;;;;;;0.75;0.40;;;;;;;11.73;100.00;99976.00;5004626;28;20062;-77
2023/01/14 04:20:54;;;;;;;0.50;0.28;;;;;;;11.67;100.00;99977.66;5004288;28;20057;-77
2023/01/14 04:23:28;;;;;;;0.60;0.50;;;;;;;11.62;100.00;99967.22;5004206;28;20060;-75
2023/01/14 04:26:03;;;;;;;0.80;0.60;;;;;;;11.59;100.00;99974.09;5000982;28;20144;-76
2023/01/14 04:28:37;;;;;;;1.75;0.60;;;;;;;11.60;100.00;99981.88;5001964;28;20049;-75
2023/01/14 04:31:06;;;;;;;0.50;0.35;;;;;;;11.58;100.00;99973.22;5003173;28;20049;-77
2023/01/14 04:33:37;;;;;;;1.77;0.73;;;;;;;11.60;100.00;99970.66;5003113;28;20188;-79
2023/01/14 04:36:08;;;;;;;1.48;0.80;;;;;;;11.62;100.00;99979.31;5007187;28;20050;-80
2023/01/14 04:38:40;;;;;;;0.93;0.40;;;;;;;11.62;100.00;99980.19;5006090;28;20049;-75
2023/01/14 04:42:25;;;;;;;0.82;0.50;;;;;;;11.63;100.00;99978.47;4999681;28;20053;-76
2023/01/14 04:43:57;;;;;;;2.80;0.50;;;;;;;11.65;100.00;99980.22;5007989;28;20061;-78
2023/01/14 04:46:29;;;;;;;0.85;0.50;;;;;;;11.64;100.00;99978.50;5008563;28;20077;-78
2023/01/14 04:48:58;;;;;;;2.40;0.60;;;;;;;11.62;100.00;99982.78;5008686;28;20053;-78
2023/01/14 04:51:29;;;;;;;1.48;0.60;;;;;;;11.66;100.00;99981.09;5009390;28;20057;-79
2023/01/14 04:53:58;;;;;;;1.10;0.70;;;;;;;11.66;100.00;99973.31;5007655;28;20137;-79
2023/01/14 04:56:26;;;;;;;1.35;0.43;;;;;;;11.68;100.00;99969.91;5008791;28;20048;-76
2023/01/14 04:58:57;;;;;;;1.50;0.80;;;;;;;11.69;100.00;99971.63;5008957;28;20056;-79
2023/01/14 05:01:32;;;;;;;0.80;0.63;;;;;;;11.70;100.00;99965.63;5007341;28;20046;-78
2023/01/14 05:04:01;;;;;;;1.20;0.60;;;;;;;11.72;100.00;99974.25;5008768;28;20053;-77
2023/01/14 05:06:31;;;;;;;2.60;0.85;;;;;;;11.70;100.00;99967.31;4998428;28;20133;-76
2023/01/14 05:09:00;;;;;;;3.65;0.98;;;;;;;11.69;100.00;99965.59;5006611;28;20046;-77
2023/01/14 05:11:28;;;;;;;1.00;0.70;;;;;;;11.67;100.00;99969.88;5005415;28;20050;-76
2023/01/14 05:13:57;;;;;;;1.02;0.70;;;;;;;11.65;100.00;99969.84;5002142;28;20050;-78
2023/01/14 05:16:26;;;;;;;0.73;0.68;;;;;;;11.65;100.00;99963.81;5008060;28;20053;-79
2023/01/14 05:18:55;;;;;;;1.98;0.80;;;;;;;11.63;100.00;99965.50;5008618;28;20092;-79
2023/01/14 05:21:25;;;;;;;1.02;0.50;;;;;;;11.61;100.00;99968.06;5007201;28;20058;-78
2023/01/14 05:23:55;;;;;;;0.60;0.52;;;;;;;11.57;100.00;99966.31;5008955;28;20133;-80
2023/01/14 05:26:24;;;;;;;0.50;0.40;;;;;;;11.53;100.00;99975.75;5006709;28;20531;-77
2023/01/14 05:28:52;;;;;;;1.10;0.60;;;;;;;11.53;100.00;99978.34;5002486;28;20061;-77
2023/01/14 05:31:21;;;;;;;1.50;0.50;;;;;;;11.56;100.00;99984.41;5006701;28;20428;-77
2023/01/14 05:33:50;;;;;;;2.95;0.85;;;;;;;11.55;100.00;99974.91;5008197;28;20052;-80
2023/01/14 05:36:18;;;;;;;1.23;0.80;;;;;;;11.59;100.00;99979.28;5006054;28;20054;-76
2023/01/14 05:38:47;;;;;;;1.75;0.60;;;;;;;11.60;100.00;99971.53;5005673;28;20176;-76
2023/01/14 05:41:17;;;;;;;3.13;0.80;;;;;;;11.63;100.00;99975.88;5008881;28;20042;-76
2023/01/14 05:46:31;;;;;;;1.80;0.60;;;;;;;11.65;100.00;99971.59;5008944;28;20518;-80
2023/01/14 05:48:59;;;;;;;1.73;0.50;;;;;;;11.67;100.00;99975.06;5007103;28;20053;-79
2023/01/14 05:51:28;;;;;;;2.28;0.63;;;;;;;11.65;100.00;99974.16;5006089;28;20452;-78
2023/01/14 05:53:57;;;;;;;1.25;0.70;;;;;;;11.61;100.00;99977.56;5004034;28;20052;-77
2023/01/14 05:56:27;;;;;;;2.25;0.70;;;;;;;11.62;100.00;99967.22;5007556;28;20056;-75
2023/01/14 05:58:55;;;;;;;5.38;0.90;;;;;;;11.64;100.00;99969.84;5007851;28;20041;-76
2023/01/14 06:06:55;;;;;;;1.33;0.40;;;;;;;11.60;100.00;99974.13;5009662;28;20081;-78
2023/01/14 06:09:24;;;;;;;0.60;0.40;;;;;;;11.57;100.00;99978.38;5008689;28;20512;-76
2023/01/14 06:12:02;;;;;;;1.85;0.70;;;;;;;11.52;100.00;99975.72;5005506;28;20050;-78
2023/01/14 06:14:31;;;;;;;1.38;0.52;;;;;;;11.50;100.00;99974.88;5006844;28;20164;-79
2023/01/14 06:17:02;;;;;;;2.17;0.90;;;;;;;11.51;100.00;99976.59;5006310;28;20047;-77
2023/01/14 06:19:30;;;;;;;4.68;1.02;;;;;;;11.53;100.00;99969.72;5006068;28;20678;-78
2023/01/14 06:21:59;;;;;;;1.65;0.63;;;;;;;11.55;100.00;99977.50;5008116;28;20089;-75
2023/01/14 06:24:28;;;;;;;0.80;0.50;;;;;;;11.55;100.00;99977.50;5005397;28;20654;-75
2023/01/14 06:26:58;;;;;;;0.70;0.47;;;;;;;11.52;100.00;99979.22;5008462;28;20042;-80
2023/01/14 06:29:26;;;;;;;1.67;0.70;;;;;;;11.53;100.00;99977.47;5009494;28;20131;-79
2023/01/14 06:31:55;;;;;;;1.13;0.45;;;;;;;11.53;100.00;99982.66;5008499;28;20077;-76
2023/01/14 06:34:23;;;;;;;4.05;0.82;;;;;;;11.53;100.00;99990.44;5012367;28;20058;-75
2023/01/14 06:36:52;;;;;;;0.93;0.75;;;;;;;11.49;100.00;99989.50;5008555;28;20690;-77
2023/01/14 06:39:21;;;;;;;1.42;0.93;;;;;;;11.48;100.00;100000.75;5010489;28;20064;-78
2023/01/14 06:41:49;;;;;;;1.63;0.80;;;;;;;11.49;100.00;99999.00;5010007;28;20077;-79
2023/01/14 06:44:23;;;;;;;1.52;0.60;;;;;;;11.46;100.00;99994.66;5004025;28;20161;-77
2023/01/14 06:46:52;;;;;;;1.50;0.60;;;;;;;11.45;100.00;99989.44;5007778;28;20052;-79
2023/01/14 06:49:21;;;;;;;1.05;0.70;;;;;;;11.47;100.00;99993.81;5004852;28;20050;-78
2023/01/14 06:51:49;;;;;;;1.30;0.60;;;;;;;11.49;100.00;99992.09;5001472;28;20049;-81
2023/01/14 06:54:18;;;;;;;1.38;0.80;;;;;;;11.49;100.00;99991.25;5003978;28;20068;-79
2023/01/14 06:56:46;;;;;;;1.17;0.77;;;;;;;11.46;100.00;99989.47;5005536;28;20051;-78
2023/01/14 06:59:15;;;;;;;1.92;0.80;;;;;;;11.47;100.00;99988.63;5004896;28;20109;-79
2023/01/14 07:01:45;;;;;;;2.17;0.63;;;;;;;11.44;100.00;99986.00;5006849;28;20045;-78
2023/01/14 07:04:14;;;;;;;2.53;0.65;;;;;;;11.45;100.00;99979.97;5004994;28;20053;-78
2023/01/14 07:06:42;;;;;;;0.82;0.65;;;;;;;11.46;100.00;99979.13;5005490;28;20049;-78
2023/01/14 07:09:11;;;;;;;1.30;0.70;;;;;;;11.47;100.00;99978.25;5007639;28;20042;-77
2023/01/14 07:11:41;;;;;;;2.17;0.60;;;;;;;11.47;100.00;99975.66;5004893;28;20463;-78
2023/01/14 07:14:10;;;;;;;1.15;0.63;;;;;;;11.46;100.00;99973.94;5010080;28;20136;-78
2023/01/14 07:16:38;;;;;;;1.38;0.77;;;;;;;11.47;100.00;99973.06;5005176;28;20133;-77
2023/01/14 07:19:11;;;;;;;1.42;0.60;;;;;;;11.45;100.00;99968.72;5005814;28;20068;-78
2023/01/14 07:21:39;;;;;;;;;;;;;;;11.46;100.00;99971.34;5008272;28;20069;-77
2023/01/14 07:24:08;;;;;;;0.85;0.60;;;;;;;11.44;100.00;99973.03;5006574;28;19936;-77
2023/01/14 07:26:37;;;;;;;0.90;0.47;;;;;;;11.43;100.00;99973.91;5004131;28;20054;-79
2023/01/14 07:29:05;;;;;;;1.25;0.63;;;;;;;11.45;100.00;99971.31;5004532;28;20053;-78
2023/01/14 07:31:34;;;;;;;0.90;0.57;;;;;;;11.45;100.00;99964.44;5004631;28;20189;-78
2023/01/14 07:34:02;;;;;;;2.30;0.77;;;;;;;11.45;100.00;99960.94;5008363;28;20042;-77
2023/01/14 07:36:32;;;;;;;1.17;0.80;;;;;;;11.44;100.00;99959.22;5005750;28;20226;-78
2023/01/14 07:39:01;;;;;;;1.45;0.70;;;;;;;11.44;100.00;99957.50;5005058;28;20133;-78
2023/01/14 07:41:29;;;;;;;1.40;0.60;;;;;;;11.44;100.00;99960.09;5004915;28;20499;-76
2023/01/14 07:43:58;;;;;;;1.00;0.60;;;;;;;11.44;100.00;99954.03;5006156;28;20057;-77
2023/01/14 07:46:27;;;;;;;1.95;0.70;;;;;;;11.44;100.00;99954.03;5007083;28;20547;-77
2023/01/14 07:48:55;;;;;;;3.28;1.98;;;;;;;11.45;100.00;99955.78;5005310;28;20791;-76
2023/01/14 07:51:24;;;;;;;2.42;1.08;;;;;;;11.45;100.00;99950.59;5004914;28;20124;-79
2023/01/14 07:53:54;;;;;;;2.40;1.00;;;;;;;11.45;100.00;99946.31;5004674;28;20057;-79
2023/01/14 07:56:22;;;;;;;2.17;0.93;;;;;;;11.44;100.00;99944.56;5006719;28;20090;-78
2023/01/14 07:58:53;;;;;;;2.13;0.90;;;;;;;11.43;100.00;99944.50;5003404;28;20042;-78
2023/01/14 08:01:21;;;;;;;1.15;0.60;;;;;;;11.43;100.00;99947.09;5006159;28;20132;-80
2023/01/14 08:03:50;;;;;;;1.63;0.70;;;;;;;11.44;100.00;99948.88;5006593;28;20053;-78
2023/01/14 08:06:19;;;;;;;1.10;0.77;;;;;;;11.43;100.00;99947.09;5004948;28;20038;-79
2023/01/14 08:08:47;;;;;;;0.77;0.57;;;;;;;11.43;100.00;99948.00;5006206;28;20057;-78
2023/01/14 08:11:17;;;;;;;0.60;0.50;;;;;;;11.42;100.00;99943.66;5006869;28;20054;-78
2023/01/14 08:13:46;;;;;;;0.70;0.47;;;;;;;11.41;100.00;99941.94;5005767;28;20554;-78
2023/01/14 08:16:15;;;;;;;1.20;0.50;;;;;;;11.41;100.00;99941.94;5003893;28;20045;-78
2023/01/14 08:18:44;;;;;;;1.27;0.65;;;;;;;11.44;100.00;99948.88;5011486;28;20080;-78
2023/01/14 08:21:12;;;;;;;0.40;0.30;;;;;;;11.46;100.00;99939.41;5002872;28;20046;-77
2023/01/14 08:23:41;;;;;;;1.20;0.45;;;;;;;11.47;100.00;99941.13;5007400;28;20779;-78
2023/01/14 08:26:12;;;;;;;0.50;0.50;;;;;;;11.49;100.00;99937.69;5006002;28;20072;-77
2023/01/14 08:28:43;;;;;;;3.50;0.40;;;;;;;11.50;100.00;99931.69;5005527;28;20080;-79
2023/01/14 08:31:14;;;;;;;1.55;0.60;;;;;;;11.51;100.00;99930.81;5002635;28;20216;-79
2023/01/14 08:33:43;;;;;;;0.73;0.40;;;;;;;11.52;100.00;99932.56;5005881;28;20057;-78
2023/01/14 08:36:13;;;;;;;0.32;0.30;;;;;;;11.53;100.00;99933.44;4994886;28;20509;-78
2023/01/14 08:38:44;;;;;;;1.95;0.57;;;;;;;11.55;100.00;99930.88;4987038;28;20650;-78
2023/01/14 08:41:15;;;;;;;2.25;0.45;;;;;;;11.54;100.00;99924.81;4987578;28;20137;-79
2023/01/14 08:43:49;;;;;;;0.80;0.45;;;;;;;11.55;100.00;99918.78;4989183;28;20061;-79
2023/01/14 08:46:17;;;;;;;0.70;0.50;;;;;;;11.55;100.00;99917.94;4986077;28;20062;-79
2023/01/14 08:48:46;;;;;;;0.40;0.40;;;;;;;11.55;100.00;99918.78;4986406;28;20046;-80
2023/01/14 08:51:15;;;;;;;0.50;0.40;;;;;;;11.54;100.00;99919.63;4987781;28;20073;-79
2023/01/14 08:53:43;;;;;;;0.88;0.38;;;;;;;11.55;100.00;99904.97;4989747;28;20568;-79
2023/01/14 08:56:19;;;;;;;0.35;0.30;;;;;;;11.52;100.00;99911.84;4993551;28;20050;-79
2023/01/14 08:58:49;;;;;;;1.25;0.60;;;;;;;11.51;100.00;99914.41;4989305;28;20054;-79
2023/01/14 09:01:17;;;;;;;0.30;0.30;;;;;;;11.46;100.00;99909.19;4986127;28;20547;-79
2023/01/14 09:03:46;;;;;;;0.70;0.40;;;;;;;11.45;100.00;99915.22;4991061;28;20213;-78
2023/01/14 09:06:17;;;;;;;0.45;0.32;;;;;;;11.43;100.00;99897.88;4986342;28;20080;-78
2023/01/14 09:17:10;;;;;;;1.58;0.50;;;;;;;11.36;100.00;99893.50;4982560;28;20069;-79
2023/01/14 09:19:42;;;;;;;0.65;0.50;;;;;;;11.32;100.00;99887.41;4987720;28;20047;-78
2023/01/14 09:22:13;;;;;;;0.80;0.50;;;;;;;11.32;100.00;99885.69;4986447;28;20043;-79
2023/01/14 09:24:41;;;;;;;0.30;0.25;;;;;;;11.32;100.00;99887.41;4986725;28;20054;-78
2023/01/14 09:27:10;;;;;;;1.50;0.40;;;;;;;11.27;100.00;99874.41;4990939;28;20046;-78
2023/01/14 09:29:40;;;;;;;1.20;0.40;;;;;;;11.26;100.00;99876.97;4983283;28;20058;-79
2023/01/14 09:32:10;;;;;;;1.80;0.52;;;;;;;11.25;100.00;99875.25;4990296;28;20050;-79
2023/01/14 09:34:41;;;;;;;0.32;0.22;;;;;;;11.21;100.00;99884.69;4992361;28;20169;-78
2023/01/14 09:37:10;;;;;;;0.80;0.28;;;;;;;11.17;100.00;99879.44;5009125;28;20053;-79
2023/01/14 09:39:39;;;;;;;0.32;0.22;;;;;;;11.14;100.00;99884.59;5006430;28;20046;-78
2023/01/14 09:42:10;;;;;;;1.08;0.30;;;;;;;11.08;100.00;99886.22;5006133;28;21094;-78
2023/01/14 09:44:42;;;;;;;1.95;0.30;;;;;;;11.02;100.00;99878.41;5005361;28;20460;-78
2023/01/14 09:47:14;;;;;;;2.35;0.30;;;;;;;10.97;100.00;99876.59;5009886;28;21193;-77
2023/01/14 09:49:43;;;;;;;0.95;0.30;;;;;;;10.96;100.00;99864.50;5006769;28;20065;-79
2023/01/14 09:52:28;;;;;;;0.55;0.20;;;;;;;10.94;100.00;99867.06;5007017;28;20049;-78
2023/01/14 09:55:07;;;;;;;2.35;0.32;;;;;;;10.93;100.00;99862.75;5009175;28;20603;-78
2023/01/14 09:57:44;;;;;;;2.15;0.30;;;;;;;10.92;100.00;99854.94;5006952;28;20112;-80
2023/01/14 10:00:30;;;;;;;0.20;0.20;;;;;;;10.89;100.00;99860.97;5008267;28;20053;-78
2023/01/14 10:03:17;;;;;;;0.28;0.20;;;;;;;10.88;100.00;99861.78;5010670;28;20042;-78
2023/01/14 10:05:52;;;;;;;3.50;0.43;;;;;;;10.87;100.00;99854.88;5010941;28;20049;-79
2023/01/14 10:08:23;;;;;;;1.42;0.20;;;;;;;10.88;100.00;99856.63;5007613;28;20062;-80
2023/01/14 10:10:52;;;;;;;0.20;0.20;;;;;;;10.88;100.00;99846.25;5010066;28;20037;-79
2023/01/14 10:13:23;;;;;;;0.50;0.35;;;;;;;10.88;100.00;99854.03;5009204;28;20172;-79
2023/01/14 10:15:57;;;;;;;0.15;0.10;;;;;;;10.87;100.00;99852.31;5006896;28;20069;-79
2023/01/14 10:18:30;;;;;;;1.75;0.20;;;;;;;10.88;100.00;99846.25;5007354;28;20049;-79
2023/01/14 10:21:00;;;;;;;0.28;0.20;;;;;;;10.90;100.00;99844.56;5006243;28;20053;-79
2023/01/14 10:23:33;;;;;;;0.32;0.20;;;;;;;10.91;100.00;99833.38;5007150;28;20121;-79
2023/01/14 10:26:03;;;;;;;0.10;0.10;;;;;;;10.94;100.00;99836.00;5009733;28;20133;-78
2023/01/14 10:28:32;;;;;;;0.55;0.30;;;;;;;10.93;100.00;99826.50;5007174;28;20058;-78
2023/01/14 10:31:04;;;;;;;0.75;0.40;;;;;;;10.91;100.00;99828.22;5007749;28;20656;-78
2023/01/14 10:33:33;;;;;;;0.10;0.10;;;;;;;10.88;100.00;99833.31;5006782;28;20049;-78
2023/01/14 10:36:04;;;;;;;0.28;0.20;;;;;;;10.87;100.00;99826.44;5007136;28;20064;-78
2023/01/14 10:38:33;;;;;;;2.07;0.13;;;;;;;10.86;100.00;99819.53;5006705;28;20042;-78
2023/01/14 10:41:06;;;;;;;0.85;0.20;;;;;;;10.86;100.00;99820.38;5003159;28;20064;-78
2023/01/14 10:43:39;;;;;;;0.55;0.13;;;;;;;10.87;100.00;99818.66;4997851;28;20065;-77
2023/01/14 10:46:15;;;;;;;0.38;0.30;;;;;;;10.84;100.00;99810.88;5005830;28;20041;-78
2023/01/14 10:48:51;;;;;;;0.20;0.20;;;;;;;10.84;100.00;99816.91;5005540;28;20057;-77
2023/01/14 10:51:36;;;;;;;2.38;0.10;;;;;;;10.82;100.00;99804.81;5006949;28;20046;-77
2023/01/14 10:54:15;;;;;;;0.47;0.20;;;;;;;10.80;100.00;99804.75;5007995;28;20727;-78
2023/01/14 10:56:47;;;;;;;0.75;0.20;;;;;;;10.79;100.00;99796.97;5006014;28;20062;-78
2023/01/14 10:59:32;;;;;;;1.02;0.30;;;;;;;10.77;100.00;99794.38;5007369;28;20046;-78
2023/01/14 11:02:03;;;;;;;0.88;0.13;;;;;;;10.74;100.00;99781.38;5004829;28;20050;-78
2023/01/14 11:04:33;;;;;;;2.10;0.20;;;;;;;10.72;100.00;99769.28;5004259;28;20112;-78
2023/01/14 11:07:11;;;;;;;0.38;0.30;;;;;;;10.71;100.00;99762.38;5005319;28;20057;-78
2023/01/14 11:09:41;;;;;;;2.17;0.47;;;;;;;10.67;100.00;99757.19;5001281;28;20128;-78
2023/01/14 11:12:27;;;;;;;1.20;0.20;;;;;;;10.64;100.00;99751.94;5003527;28;20092;-78
2023/01/14 11:14:55;;;;;;;0.13;0.13;;;;;;;10.62;100.00;99747.59;5004213;28;20049;-78
2023/01/14 11:17:27;;;;;;;0.73;0.28;;;;;;;10.58;100.00;99736.38;5005250;28;20046;-78
2023/01/14 11:20:23;;;;;;;5.90;0.87;;;;;;;10.53;100.00;99727.66;5004308;28;20053;-78
2023/01/14 11:23:00;;;;;;;1.40;0.50;;;;;;;10.48;100.00;99725.00;5007822;28;20384;-78
2023/01/14 11:25:29;;;;;;;0.85;0.60;;;;;;;10.45;100.00;99716.34;5003114;28;20049;-78
2023/01/14 11:28:01;;;;;;;2.33;1.30;;;;;;;10.42;100.00;99712.00;5003667;28;20129;-78
2023/01/14 11:30:29;;;;;;;2.20;1.27;;;;;;;10.38;100.00;99706.78;5007067;28;20092;-78
2023/01/14 11:33:01;;;;;;;1.90;0.90;;;;;;;10.34;100.00;99700.69;5004947;28;20052;-78
2023/01/14 11:35:33;;;;;;;1.50;0.80;;;;;;;10.32;100.00;99696.34;5005502;28;20066;-78
2023/01/14 11:38:06;;;;;;;1.45;0.60;;;;;;;10.29;100.00;99691.16;5006528;28;20045;-78
2023/01/14 11:43:25;;;;;;;0.90;0.80;;;;;;;10.19;100.00;99692.69;5004351;28;20526;-78
2023/01/14 11:46:07;;;;;;;2.40;0.82;;;;;;;10.16;100.00;99697.81;5008149;28;20508;-78
2023/01/14 11:48:37;;;;;;;1.20;0.60;;;;;;;10.11;100.00;99686.56;4999934;28;20050;-78
2023/01/14 11:51:06;;;;;;;1.25;0.70;;;;;;;10.07;100.00;99680.47;5007363;28;20709;-78
2023/01/14 11:53:45;;;;;;;1.95;0.60;;;;;;;10.05;100.00;99676.97;5006816;28;20065;-79
2023/01/14 11:56:18;;;;;;;0.50;0.35;;;;;;;10.05;100.00;99671.81;5005713;28;20692;-78
2023/01/14 11:58:46;;;;;;;;;;;;;;;10.03;100.00;99668.34;5007407;28;20064;-79
2023/01/14 12:01:23;;;;;;;1.38;0.40;;;;;;;10.03;100.00;99663.16;5004418;28;19925;-78
2023/01/14 12:04:01;;;;;;;2.17;0.45;;;;;;;10.02;100.00;99653.69;5005016;28;20819;-80
2023/01/14 12:06:33;;;;;;;0.43;0.28;;;;;;;10.00;100.00;99645.03;5005339;28;20058;-78
2023/01/14 12:09:12;;;;;;;0.40;0.40;;;;;;;9.97;100.00;99639.84;5006992;28;20069;-79
2023/01/14 12:11:49;;;;;;;0.75;0.20;;;;;;;9.94;100.00;99632.91;5007213;28;20542;-79
2023/01/14 12:17:14;;;;;;;0.22;0.22;;;;;;;9.88;100.00;99617.31;5005970;28;20141;-80
2023/01/14 12:19:50;;;;;;;0.57;0.28;;;;;;;9.85;100.00;99607.81;5007536;28;20065;-79
2023/01/14 12:22:23;;;;;;;0.75;0.30;;;;;;;9.83;100.00;99604.34;5005791;28;20045;-79
2023/01/14 12:25:07;;;;;;;1.23;0.40;;;;;;;9.82;100.00;99592.25;5005823;28;20060;-80
2023/01/14 12:27:44;;;;;;;0.93;0.40;;;;;;;9.81;100.00;99584.50;5005544;28;20065;-79
2023/01/14 12:30:27;;;;;;;0.60;0.40;;;;;;;9.79;100.00;99571.56;5004587;28;20398;-79
2023/01/14 12:33:02;;;;;;;1.70;1.02;;;;;;;9.77;100.00;99556.88;5005657;28;20140;-79
2023/01/14 12:35:38;;;;;;;2.90;0.60;;;;;;;9.74;100.00;99555.13;5010432;28;20133;-79
2023/01/14 12:46:29;;;;;;;0.77;0.55;;;;;;;9.74;100.00;99546.50;5005163;28;20121;-78
2023/01/14 12:49:00;;;;;;;0.52;0.40;;;;;;;9.76;100.00;99544.81;5005814;28;20046;-79
2023/01/14 12:51:33;;;;;;;0.60;0.38;;;;;;;9.77;100.00;99537.06;5006558;28;20135;-78
2023/01/14 12:54:03;;;;;;;1.50;0.80;;;;;;;9.79;100.00;99530.22;5006532;28;20065;-78
2023/01/14 12:56:34;;;;;;;0.85;0.60;;;;;;;9.80;100.00;99520.75;4998271;28;20046;-78
2023/01/14 12:59:06;;;;;;;1.05;0.63;;;;;;;9.82;100.00;99508.72;5005835;28;20050;-78
2023/01/14 13:01:44;;;;;;;1.15;0.77;;;;;;;9.84;100.00;99509.59;5003781;28;20050;-79
2023/01/14 13:04:20;;;;;;;1.17;0.50;;;;;;;9.85;100.00;99496.72;5006850;28;20049;-79
2023/01/14 13:06:57;;;;;;;0.73;0.60;;;;;;;9.88;100.00;99497.59;5007241;28;20487;-78
2023/01/14 13:09:32;;;;;;;1.10;0.50;;;;;;;9.88;100.00;99484.69;5004756;28;20070;-79
2023/01/14 13:12:01;;;;;;;1.73;0.52;;;;;;;9.89;100.00;99474.34;5002093;28;20056;-78
2023/01/14 13:14:35;;;;;;;0.57;0.50;;;;;;;9.89;100.00;99470.91;5007553;28;20530;-78
2023/01/14 13:17:08;;;;;;;1.77;0.77;;;;;;;9.90;100.00;99465.78;5015638;28;20535;-77
2023/01/14 13:19:52;;;;;;;1.05;0.88;;;;;;;9.92;100.00;99451.16;5007920;28;20050;-77
2023/01/14 13:22:48;;;;;;;1.30;0.70;;;;;;;9.93;100.00;99446.84;5008238;28;20594;-78
2023/01/14 13:25:34;;;;;;;0.75;0.60;;;;;;;9.93;100.00;99439.09;4994834;28;20088;-78
2023/01/14 13:28:05;;;;;;;0.98;0.70;;;;;;;9.92;100.00;99443.41;5009140;28;20516;-79
2023/01/14 13:30:45;;;;;;;2.22;0.60;;;;;;;9.91;100.00;99433.03;5006724;28;20703;-77
2023/01/14 13:33:23;;;;;;;0.95;0.57;;;;;;;9.91;100.00;99430.47;5012183;28;20069;-78
2023/01/14 13:36:18;;;;;;;0.60;0.40;;;;;;;9.91;100.00;99435.63;5014383;28;20081;-79
2023/01/14 13:39:00;;;;;;;0.55;0.45;;;;;;;9.93;100.00;99423.59;5007549;28;20046;-77
2023/01/14 13:41:48;;;;;;;2.38;0.50;;;;;;;9.94;100.00;99420.16;5004953;28;20049;-77
2023/01/14 13:44:26;;;;;;;1.08;0.68;;;;;;;9.95;100.00;99421.91;5010318;28;20054;-78
2023/01/14 13:46:57;;;;;;;0.60;0.30;;;;;;;9.97;100.00;99412.44;5007786;28;20119;-78
2023/01/14 13:49:31;;;;;;;1.30;0.60;;;;;;;9.98;100.00;99401.25;5006888;28;20052;-80
2023/01/14 13:52:03;;;;;;;1.25;0.55;;;;;;;9.97;100.00;99399.53;5007227;28;20045;-78
2023/01/14 13:54:34;;;;;;;;;;;;;;;9.97;100.00;99399.53;5010292;28;20046;-79